Time;durP1;ratioP1;P1;durP2;ratioP2;P2;SDS_P1;SDS_P2;PMS_P1;PMS_P2;Temp;Humidity;BMP_temperature;BMP_pressure;BME280_temperature;BME280_humidity;BME280_pressure;Samples;Min_cycle;Max_cycle;Signal;HPM_P1;HPM_P2
2022/03/13 00:02:16;;;;;;;8.25;5.65;;;;;;;19.01;37.63;101704.59;4986839;28;20038;-40
2022/03/13 00:04:49;;;;;;;8.82;5.95;;;;;;;18.99;37.69;101694.19;4989621;28;20038;-40
2022/03/13 00:07:21;;;;;;;9.25;6.00;;;;;;;18.98;37.50;101699.63;4988600;28;20486;-40
2022/03/13 00:09:51;;;;;;;9.20;5.07;;;;;;;18.95;37.45;101698.16;4990278;28;20448;-41
2022/03/13 00:12:29;;;;;;;8.75;5.43;;;;;;;18.97;37.42;101698.00;4987446;28;20066;-42
2022/03/13 00:14:56;;;;;;;7.68;4.97;;;;;;;18.95;37.36;101699.97;4987920;28;20137;-41
2022/03/13 00:17:27;;;;;;;10.45;5.68;;;;;;;18.95;37.32;101697.34;5002597;28;20120;-40
2022/03/13 00:20:00;;;;;;;8.35;4.35;;;;;;;18.93;37.12;101696.69;4986193;28;20042;-39
2022/03/13 00:22:27;;;;;;;10.10;5.35;;;;;;;18.94;37.13;101693.06;4988543;28;20490;-39
2022/03/13 00:24:54;;;;;;;9.13;4.80;;;;;;;18.92;37.05;101687.13;4989074;28;20513;-39
2022/03/13 00:27:20;;;;;;;8.10;4.78;;;;;;;18.90;37.00;101685.47;4989024;28;20454;-39
2022/03/13 00:29:46;;;;;;;5.78;4.20;;;;;;;18.90;36.91;101696.03;4989221;28;20116;-41
2022/03/13 00:32:12;;;;;;;6.63;4.25;;;;;;;18.89;37.05;101685.66;4987928;28;20122;-41
2022/03/13 00:34:38;;;;;;;6.72;4.60;;;;;;;18.89;37.33;101675.94;4986583;28;20038;-41
2022/03/13 00:37:03;;;;;;;6.28;3.75;;;;;;;18.88;37.20;101684.84;4988730;28;20034;-41
2022/03/13 00:39:29;;;;;;;5.97;4.00;;;;;;;18.87;37.05;101675.28;4988256;28;20041;-39
2022/03/13 00:41:54;;;;;;;6.15;4.18;;;;;;;18.85;37.04;101682.53;4989788;28;20038;-40
2022/03/13 00:44:20;;;;;;;7.63;5.20;;;;;;;18.86;37.09;101680.72;4987460;28;20450;-39
2022/03/13 00:46:45;;;;;;;8.68;5.35;;;;;;;18.86;36.94;101681.53;4987356;28;20037;-41
2022/03/13 00:49:11;;;;;;;6.78;4.28;;;;;;;18.86;36.88;101678.91;4989594;28;20044;-39
2022/03/13 00:51:37;;;;;;;8.27;4.70;;;;;;;18.86;36.55;101670.97;4989086;28;20066;-39
2022/03/13 00:54:04;;;;;;;7.50;4.60;;;;;;;18.88;36.50;101668.16;4987428;28;20043;-39
2022/03/13 00:56:31;;;;;;;6.93;4.88;;;;;;;18.88;36.36;101666.34;4983185;28;20038;-40
2022/03/13 00:58:56;;;;;;;7.50;4.38;;;;;;;18.89;36.36;101656.63;4989463;28;20034;-39
2022/03/13 01:01:21;;;;;;;5.97;3.85;;;;;;;18.89;36.28;101659.25;4988030;28;20592;-40
2022/03/13 01:03:53;;;;;;;6.75;3.97;;;;;;;18.89;36.19;101660.09;4987241;28;20096;-40
2022/03/13 01:06:20;;;;;;;6.15;4.65;;;;;;;18.88;36.00;101647.88;4987322;28;20076;-39
2022/03/13 01:08:46;;;;;;;7.05;4.03;;;;;;;18.89;35.80;101653.97;4987117;28;20050;-40
2022/03/13 01:11:18;;;;;;;5.72;4.03;;;;;;;18.87;35.71;101662.06;4989934;28;20034;-41
2022/03/13 01:13:44;;;;;;;6.85;4.25;;;;;;;18.88;35.72;101661.06;4985995;28;20042;-40
2022/03/13 01:16:25;;;;;;;5.00;4.05;;;;;;;18.85;35.55;101658.78;4987471;28;20038;-39
2022/03/13 01:18:57;;;;;;;4.55;2.90;;;;;;;18.84;35.66;101654.47;4987440;28;20031;-42
2022/03/13 01:21:23;;;;;;;5.32;3.33;;;;;;;18.83;35.54;101659.94;4986880;28;20035;-39
2022/03/13 01:24:06;;;;;;;5.32;3.90;;;;;;;18.79;35.55;101653.34;4987319;28;20027;-40
2022/03/13 01:26:37;;;;;;;7.05;3.65;;;;;;;18.81;35.93;101651.34;4986889;28;20549;-40
2022/03/13 01:29:06;;;;;;;5.60;3.10;;;;;;;18.79;36.00;101642.78;4987309;28;20482;-41
2022/03/13 01:31:35;;;;;;;6.18;3.97;;;;;;;18.77;35.94;101650.88;4986527;28;20042;-40
2022/03/13 01:34:01;;;;;;;5.07;3.45;;;;;;;18.75;35.89;101644.94;4987371;28;20200;-41
2022/03/13 01:36:28;;;;;;;5.22;3.60;;;;;;;18.76;35.72;101657.16;4985217;28;20589;-39
2022/03/13 01:38:56;;;;;;;4.70;3.30;;;;;;;18.75;35.72;101652.84;4988994;28;20042;-39
2022/03/13 01:41:29;;;;;;;5.68;4.15;;;;;;;18.74;35.70;101658.31;4987496;28;20108;-40
2022/03/13 01:43:57;;;;;;;6.15;3.10;;;;;;;18.71;35.86;101656.00;4987149;28;20030;-40
2022/03/13 01:46:22;;;;;;;5.68;3.85;;;;;;;18.70;35.90;101651.72;4986510;28;20080;-39
2022/03/13 01:49:01;;;;;;;4.55;3.45;;;;;;;18.66;35.73;101656.50;4987926;28;20030;-40
2022/03/13 01:51:27;;;;;;;5.57;3.47;;;;;;;18.65;35.89;101652.22;4988706;28;20030;-40
2022/03/13 01:53:55;;;;;;;4.22;3.63;;;;;;;18.66;36.11;101647.75;4987538;28;20019;-41
2022/03/13 01:56:21;;;;;;;5.90;3.88;;;;;;;18.67;36.04;101649.41;4986568;28;20030;-44
2022/03/13 01:58:55;;;;;;;6.10;4.00;;;;;;;18.66;36.07;101647.75;4986381;28;20108;-39
2022/03/13 02:01:24;;;;;;;8.52;3.72;;;;;;;18.66;36.17;101638.03;4986976;28;20076;-40
2022/03/13 02:03:50;;;;;;;5.35;3.60;;;;;;;18.66;36.19;101635.38;4986374;28;20054;-39
2022/03/13 02:06:17;;;;;;;4.10;3.35;;;;;;;18.66;36.12;101638.03;4986875;28;20035;-39
2022/03/13 02:08:44;;;;;;;4.25;3.63;;;;;;;18.65;35.86;101631.09;4987652;28;20478;-39
2022/03/13 02:13:40;;;;;;;6.32;3.42;;;;;;;18.64;36.11;101634.72;5004183;28;20058;-40
2022/03/13 02:16:07;;;;;;;4.95;3.63;;;;;;;18.63;35.90;101643.63;5007173;28;20366;-40
2022/03/13 02:18:32;;;;;;;3.65;2.70;;;;;;;18.62;36.06;101641.16;5006961;28;20098;-40
2022/03/13 02:20:58;;;;;;;5.25;3.30;;;;;;;18.59;36.06;101642.28;5006938;28;20440;-39
2022/03/13 02:23:28;;;;;;;5.43;3.40;;;;;;;18.56;36.00;101634.72;5007410;28;20030;-39
2022/03/13 02:25:57;;;;;;;4.70;2.60;;;;;;;18.55;36.01;101633.06;5007199;28;20041;-40
2022/03/13 02:28:25;;;;;;;4.65;3.03;;;;;;;18.54;35.83;101634.06;5007132;28;20042;-39
2022/03/13 02:30:53;;;;;;;4.88;2.90;;;;;;;18.52;35.72;101636.88;5006859;28;20034;-40
2022/03/13 02:33:21;;;;;;;5.30;2.90;;;;;;;18.51;35.64;101647.59;5006938;28;20026;-40
2022/03/13 02:35:54;;;;;;;6.07;2.97;;;;;;;18.49;35.70;101639.00;5007116;28;20032;-40
2022/03/13 02:38:20;;;;;;;3.88;2.75;;;;;;;18.50;35.57;101638.03;5007005;28;20032;-39
2022/03/13 02:40:47;;;;;;;4.47;2.78;;;;;;;18.48;35.36;101640.00;5007012;28;20034;-40
2022/03/13 02:43:12;;;;;;;4.18;2.90;;;;;;;18.46;35.41;101637.53;5007122;28;20061;-40
2022/03/13 02:45:38;;;;;;;4.43;3.13;;;;;;;18.46;35.35;101640.16;5006754;28;20073;-39
2022/03/13 02:48:07;;;;;;;5.18;2.65;;;;;;;18.45;35.43;101638.53;5006881;28;20109;-42
2022/03/13 02:50:34;;;;;;;3.63;2.42;;;;;;;18.44;35.47;101641.31;5006853;28;20103;-41
2022/03/13 02:52:59;;;;;;;6.07;3.58;;;;;;;18.43;35.51;101631.78;5006769;28;20445;-40
2022/03/13 02:55:25;;;;;;;3.40;2.50;;;;;;;18.43;35.48;101637.88;5006676;28;20069;-42
2022/03/13 02:57:52;;;;;;;4.60;2.65;;;;;;;18.41;35.46;101633.78;5006753;28;20030;-40
2022/03/13 03:00:20;;;;;;;5.35;3.10;;;;;;;18.41;35.54;101636.41;5006493;28;20050;-42
2022/03/13 03:02:47;;;;;;;5.22;3.15;;;;;;;18.40;35.45;101632.94;5004856;28;20057;-40
2022/03/13 03:05:14;;;;;;;4.50;3.47;;;;;;;18.41;35.37;101633.78;5021538;28;20033;-41
2022/03/13 03:07:40;;;;;;;4.15;3.00;;;;;;;18.41;35.28;101633.78;5024814;28;20018;-40
2022/03/13 03:10:12;;;;;;;4.05;2.65;;;;;;;18.41;35.45;101633.78;5025188;28;20069;-39
2022/03/13 03:12:38;;;;;;;3.78;2.75;;;;;;;18.42;35.32;101624.88;5010046;28;20125;-40
2022/03/13 03:15:04;;;;;;;4.38;2.47;;;;;;;18.42;35.40;101628.34;5010351;28;20153;-41
2022/03/13 03:17:30;;;;;;;3.67;2.72;;;;;;;18.42;35.29;101630.97;5010038;28;20111;-41
2022/03/13 03:19:55;;;;;;;3.97;2.95;;;;;;;18.44;35.39;101622.84;5009932;28;20057;-40
2022/03/13 03:22:21;;;;;;;4.00;2.40;;;;;;;18.45;35.28;101621.88;5010286;28;20054;-39
2022/03/13 03:24:48;;;;;;;3.63;2.42;;;;;;;18.45;35.33;101627.13;5009894;28;20029;-40
2022/03/13 03:27:16;;;;;;;3.65;2.65;;;;;;;18.45;35.25;101627.97;5009941;28;20216;-40
2022/03/13 03:29:41;;;;;;;3.97;2.35;;;;;;;18.45;35.31;101629.78;5010104;28;20036;-39
2022/03/13 03:32:07;;;;;;;3.03;2.25;;;;;;;18.46;35.37;101626.16;5010030;28;20118;-40
2022/03/13 03:34:33;;;;;;;3.08;2.70;;;;;;;18.46;35.57;101628.78;5009875;28;20053;-40
2022/03/13 03:37:01;;;;;;;4.88;2.63;;;;;;;18.46;35.64;101620.88;5010083;28;20107;-40
2022/03/13 03:39:30;;;;;;;4.38;2.30;;;;;;;18.45;35.41;101624.50;5009784;28;20030;-40
2022/03/13 03:41:55;;;;;;;4.20;2.58;;;;;;;18.46;35.53;101623.50;5024757;28;20526;-40
2022/03/13 03:44:22;;;;;;;3.17;2.30;;;;;;;18.44;35.60;101625.50;5009884;28;20068;-40
2022/03/13 03:46:49;;;;;;;5.55;2.28;;;;;;;18.43;35.48;101622.03;5009601;28;20044;-40
2022/03/13 03:49:15;;;;;;;6.05;2.28;;;;;;;18.42;35.63;101624.88;5009696;28;20033;-40
2022/03/13 03:51:41;;;;;;;2.97;1.63;;;;;;;18.41;35.44;101620.59;5010115;28;20030;-40
2022/03/13 03:54:08;;;;;;;2.97;1.95;;;;;;;18.39;35.60;101627.84;5009686;28;20425;-41
2022/03/13 03:56:33;;;;;;;2.63;2.22;;;;;;;18.36;35.55;101621.09;5009912;28;20120;-40
2022/03/13 03:58:59;;;;;;;2.95;1.85;;;;;;;18.35;35.69;101616.78;5009372;28;20033;-40
2022/03/13 04:01:25;;;;;;;2.42;2.00;;;;;;;18.33;35.49;101615.31;5009385;28;20435;-40
2022/03/13 04:03:51;;;;;;;2.95;2.22;;;;;;;18.33;35.54;101615.31;5009348;28;20041;-41
2022/03/13 04:06:19;;;;;;;3.03;1.70;;;;;;;18.31;35.58;101607.56;5009413;28;20030;-40
2022/03/13 04:08:45;;;;;;;2.47;1.73;;;;;;;18.32;35.51;101618.94;5009528;28;20034;-41
2022/03/13 04:11:12;;;;;;;2.25;1.67;;;;;;;18.30;35.60;101613.00;5009567;28;20026;-40
2022/03/13 04:13:38;;;;;;;4.30;2.05;;;;;;;18.30;35.62;101618.28;5009013;28;20072;-40
2022/03/13 04:16:06;;;;;;;3.08;2.05;;;;;;;18.29;35.62;101614.00;5009669;28;20026;-40
2022/03/13 04:18:32;;;;;;;2.58;1.73;;;;;;;18.29;35.62;101608.72;5008883;28;20091;-40
2022/03/13 04:20:58;;;;;;;5.13;2.75;;;;;;;18.28;35.61;101612.34;5009415;28;20037;-40
2022/03/13 04:23:23;;;;;;;4.30;2.00;;;;;;;18.29;35.37;101608.72;5024329;28;20030;-41
2022/03/13 04:25:49;;;;;;;2.88;1.58;;;;;;;18.29;35.46;101611.34;5009227;28;20120;-40
2022/03/13 04:28:14;;;;;;;3.78;2.53;;;;;;;18.27;35.52;101610.69;5009008;28;20037;-40
2022/03/13 04:30:40;;;;;;;3.05;2.67;;;;;;;18.27;35.67;101602.78;5023844;28;20030;-40
2022/03/13 04:33:06;;;;;;;2.95;1.85;;;;;;;18.26;35.49;101606.41;5023978;28;20058;-40
2022/03/13 04:35:33;;;;;;;3.30;1.98;;;;;;;18.24;35.58;101607.41;5008971;28;20033;-40
2022/03/13 04:37:59;;;;;;;3.13;2.30;;;;;;;18.25;35.56;101602.94;5008686;28;20048;-40
2022/03/13 04:40:24;;;;;;;2.90;1.88;;;;;;;18.25;35.52;101597.69;5008701;28;20033;-40
2022/03/13 04:42:50;;;;;;;2.70;1.90;;;;;;;18.24;35.47;101603.94;5008769;28;20095;-40
2022/03/13 04:45:16;;;;;;;2.50;1.55;;;;;;;18.22;35.35;101608.56;5008636;28;20030;-40
2022/03/13 04:47:42;;;;;;;2.22;1.63;;;;;;;18.20;35.35;101600.81;5008805;28;20034;-40
2022/03/13 04:50:08;;;;;;;2.92;2.22;;;;;;;18.18;35.35;101608.06;5023505;28;20033;-40
2022/03/13 04:52:33;;;;;;;2.85;1.85;;;;;;;18.16;35.30;101611.84;5008718;28;20401;-40
2022/03/13 04:54:58;;;;;;;2.38;1.17;;;;;;;18.14;35.35;101619.13;5008388;28;20109;-40
2022/03/13 04:57:24;;;;;;;2.60;1.67;;;;;;;18.12;35.44;101616.63;5008662;28;20037;-41
2022/03/13 04:59:49;;;;;;;1.95;1.48;;;;;;;18.11;35.42;101619.44;5008618;28;20033;-40
2022/03/13 05:02:15;;;;;;;2.65;1.48;;;;;;;18.09;35.62;101619.59;5008385;28;20037;-40
2022/03/13 05:04:43;;;;;;;2.20;1.55;;;;;;;18.10;35.62;101620.44;5008506;28;20104;-40
2022/03/13 05:07:09;;;;;;;2.33;1.42;;;;;;;18.10;35.61;101621.25;5007038;28;20351;-42
2022/03/13 05:09:35;;;;;;;2.17;1.20;;;;;;;18.08;35.59;101620.59;5008101;28;20580;-40
2022/03/13 05:12:04;;;;;;;3.15;1.83;;;;;;;18.07;35.57;101621.59;5008032;28;20533;-40
2022/03/13 05:14:30;;;;;;;1.80;1.35;;;;;;;18.05;35.62;101626.19;5023062;28;20470;-40
2022/03/13 05:16:55;;;;;;;2.97;1.70;;;;;;;18.04;35.64;101618.47;5008248;28;20026;-40
2022/03/13 05:19:21;;;;;;;2.53;1.55;;;;;;;18.02;35.49;101621.25;5008165;28;20072;-40
2022/03/13 05:21:46;;;;;;;2.42;1.17;;;;;;;18.03;35.41;101633.44;5008175;28;20076;-40
2022/03/13 05:24:12;;;;;;;2.13;1.27;;;;;;;18.02;35.38;101629.16;5008300;28;20563;-40
2022/03/13 05:26:37;;;;;;;1.80;1.25;;;;;;;18.01;35.50;101630.16;5008367;28;20022;-40
2022/03/13 05:29:03;;;;;;;3.50;2.47;;;;;;;18.01;35.34;101624.88;5007618;28;20080;-40
2022/03/13 05:31:28;;;;;;;2.53;1.75;;;;;;;18.02;35.41;101631.81;5008008;28;20550;-41
2022/03/13 05:33:54;;;;;;;2.55;1.83;;;;;;;18.03;35.45;101632.63;5007792;28;20537;-40
2022/03/13 05:36:19;;;;;;;3.38;1.40;;;;;;;18.04;35.57;101640.38;5007921;28;20030;-40
2022/03/13 05:38:45;;;;;;;3.92;1.75;;;;;;;18.04;35.36;101639.56;5007799;28;20112;-40
2022/03/13 05:41:13;;;;;;;3.88;1.85;;;;;;;18.04;35.40;101642.19;5007539;28;20057;-40
2022/03/13 05:43:41;;;;;;;3.15;2.13;;;;;;;18.04;35.24;101644.81;5007612;28;20512;-41
2022/03/13 05:46:06;;;;;;;2.80;2.05;;;;;;;18.05;35.23;101641.19;5007627;28;20084;-40
2022/03/13 05:48:32;;;;;;;3.15;2.03;;;;;;;18.05;35.37;101644.66;5007812;28;20105;-40
2022/03/13 05:50:58;;;;;;;2.42;2.08;;;;;;;18.05;35.31;101644.66;5007565;28;20058;-43
2022/03/13 05:53:23;;;;;;;2.40;1.90;;;;;;;18.06;35.32;101650.75;5007392;28;20049;-40
2022/03/13 05:55:49;;;;;;;3.17;1.75;;;;;;;18.06;35.21;101653.41;5007422;28;20157;-40
2022/03/13 05:58:14;;;;;;;2.63;1.92;;;;;;;18.05;35.19;101659.66;5007423;28;20033;-40
2022/03/13 06:00:40;;;;;;;2.42;2.10;;;;;;;18.05;35.09;101654.38;5007150;28;20033;-40
2022/03/13 06:03:06;;;;;;;3.40;2.03;;;;;;;18.04;35.20;101661.47;5007386;28;20551;-40
2022/03/13 06:05:36;;;;;;;4.18;1.98;;;;;;;18.04;35.14;101658.84;5007240;28;20022;-40
2022/03/13 06:08:03;;;;;;;3.92;1.80;;;;;;;18.03;35.14;101659.81;5007388;28;20037;-41
2022/03/13 06:10:29;;;;;;;2.63;1.70;;;;;;;18.05;35.13;101667.56;5022120;28;20583;-40
2022/03/13 06:12:54;;;;;;;3.85;1.77;;;;;;;18.06;35.34;101671.84;5021854;28;20513;-41
2022/03/13 06:15:20;;;;;;;2.42;1.50;;;;;;;18.05;35.29;101668.41;5007296;28;20080;-44
2022/03/13 06:17:47;;;;;;;2.30;1.40;;;;;;;18.08;35.32;101672.53;5007256;28;20076;-40
2022/03/13 06:20:14;;;;;;;4.38;1.60;;;;;;;18.09;35.32;101675.00;5006865;28;20120;-40
2022/03/13 06:22:43;;;;;;;2.42;1.65;;;;;;;18.13;35.53;101675.50;5006953;28;20096;-40
2022/03/13 06:25:10;;;;;;;2.35;1.50;;;;;;;18.17;35.41;101679.44;5006877;28;20750;-40
2022/03/13 06:27:37;;;;;;;3.13;1.73;;;;;;;18.20;35.41;101679.13;5007170;28;20030;-40
2022/03/13 06:30:14;;;;;;;3.53;1.77;;;;;;;18.22;35.46;101675.34;5007131;28;20056;-40
2022/03/13 06:32:45;;;;;;;2.42;1.30;;;;;;;18.27;35.52;101674.00;5021829;28;20030;-40
2022/03/13 06:35:12;;;;;;;2.45;1.48;;;;;;;18.33;35.52;101678.63;5007369;28;20030;-40
2022/03/13 06:37:39;;;;;;;3.00;1.75;;;;;;;18.37;35.34;101685.22;5006881;28;20033;-40
2022/03/13 06:40:07;;;;;;;2.58;1.92;;;;;;;18.42;35.37;101685.56;5007211;28;20049;-40
2022/03/13 06:42:36;;;;;;;4.20;1.42;;;;;;;18.46;35.35;101686.84;5010129;28;20034;-40
2022/03/13 06:45:03;;;;;;;3.00;1.65;;;;;;;18.53;35.23;101687.84;5009647;28;20338;-40
2022/03/13 06:47:28;;;;;;;5.70;1.60;;;;;;;18.57;35.21;101689.16;5011093;28;20596;-40
2022/03/13 06:49:54;;;;;;;2.05;1.60;;;;;;;18.63;35.17;101696.44;5011077;28;20153;-41
2022/03/13 06:52:20;;;;;;;2.50;1.90;;;;;;;18.68;35.13;101695.94;5010605;28;20117;-40
2022/03/13 06:54:46;;;;;;;2.35;1.40;;;;;;;18.74;34.98;101704.00;5010879;28;20041;-40
2022/03/13 06:57:14;;;;;;;2.05;1.17;;;;;;;18.78;34.83;101699.22;5010673;28;20120;-41
2022/03/13 06:59:41;;;;;;;3.88;1.60;;;;;;;18.84;34.90;101701.19;5010476;28;20045;-40
2022/03/13 07:02:07;;;;;;;3.47;1.52;;;;;;;18.86;34.89;101694.75;5025531;28;20030;-41
2022/03/13 07:04:32;;;;;;;2.95;1.33;;;;;;;18.90;34.82;101697.88;5010550;28;20041;-40
2022/03/13 07:06:58;;;;;;;1.95;1.60;;;;;;;18.94;34.74;101703.63;5010279;28;20545;-41
2022/03/13 07:09:26;;;;;;;2.40;1.35;;;;;;;18.95;34.64;101705.25;5010479;28;20384;-41
2022/03/13 07:11:51;;;;;;;3.47;1.70;;;;;;;18.97;34.69;101706.75;5010315;28;20046;-41
2022/03/13 07:14:18;;;;;;;2.28;1.20;;;;;;;18.98;34.84;101710.22;5010658;28;20088;-41
2022/03/13 07:16:44;;;;;;;2.42;1.55;;;;;;;19.01;34.78;101709.88;5010480;28;20033;-41
2022/03/13 07:19:10;;;;;;;2.28;1.42;;;;;;;19.04;34.80;101709.53;5010116;28;20026;-40
2022/03/13 07:21:37;;;;;;;2.55;1.38;;;;;;;19.06;34.79;101718.13;5010027;28;20085;-40
2022/03/13 07:24:02;;;;;;;1.75;1.20;;;;;;;19.09;34.73;101718.59;5025021;28;20440;-41
2022/03/13 07:26:28;;;;;;;2.33;1.50;;;;;;;19.11;34.74;101723.72;5010042;28;20399;-41
2022/03/13 07:28:53;;;;;;;3.30;1.70;;;;;;;19.14;34.74;101716.28;5010478;28;20121;-40
2022/03/13 07:31:19;;;;;;;3.67;1.98;;;;;;;19.17;34.71;101715.09;5010039;28;20524;-41
2022/03/13 07:33:45;;;;;;;2.33;1.65;;;;;;;19.19;34.69;101718.41;5025254;28;20127;-40
2022/03/13 07:36:10;;;;;;;2.28;1.33;;;;;;;19.20;34.72;101710.31;5009903;28;20141;-41
2022/03/13 07:38:35;;;;;;;2.17;1.30;;;;;;;19.24;34.73;101710.78;5009812;28;20056;-41
2022/03/13 07:41:01;;;;;;;3.28;1.30;;;;;;;19.27;34.69;101715.75;5009823;28;20030;-41
2022/03/13 07:43:26;;;;;;;2.40;1.33;;;;;;;19.28;34.60;101712.09;5009649;28;20037;-40
2022/03/13 07:45:52;;;;;;;2.75;1.48;;;;;;;19.31;34.60;101709.13;5009942;28;20467;-41
2022/03/13 07:48:17;;;;;;;2.85;1.67;;;;;;;19.33;34.68;101714.25;5009778;28;20021;-41
2022/03/13 07:50:43;;;;;;;2.60;1.40;;;;;;;19.36;34.48;101716.53;5009821;28;20454;-41
2022/03/13 07:53:09;;;;;;;2.13;1.48;;;;;;;19.38;34.56;101717.16;5009150;28;20517;-41
2022/03/13 07:55:34;;;;;;;2.80;1.58;;;;;;;19.40;34.54;101707.25;5009485;28;20122;-41
2022/03/13 07:57:59;;;;;;;2.70;1.40;;;;;;;19.44;34.48;101716.47;5009732;28;20108;-41
2022/03/13 08:00:25;;;;;;;2.33;1.48;;;;;;;19.45;34.47;101707.56;5009440;28;20052;-41
2022/03/13 08:02:53;;;;;;;2.33;1.45;;;;;;;19.42;34.41;101713.19;5009644;28;20045;-41
2022/03/13 08:05:21;;;;;;;14.15;1.27;;;;;;;19.39;35.07;101714.34;5007289;28;20026;-41
2022/03/13 08:07:48;;;;;;;4.38;1.88;;;;;;;19.44;35.05;101717.28;5008792;28;20038;-41
2022/03/13 08:10:14;;;;;;;2.97;1.52;;;;;;;19.48;34.99;101723.06;5024245;28;20049;-41
2022/03/13 08:12:39;;;;;;;4.10;1.58;;;;;;;19.50;35.12;101716.59;5008522;28;20080;-41
2022/03/13 08:15:09;;;;;;;3.20;1.45;;;;;;;19.50;34.94;101718.44;5008912;28;20033;-42
2022/03/13 08:17:35;;;;;;;4.22;1.42;;;;;;;19.50;34.98;101721.91;5007250;28;20591;-42
2022/03/13 08:20:03;;;;;;;3.13;1.63;;;;;;;19.51;35.05;101722.75;5008679;28;20045;-41
2022/03/13 08:22:29;;;;;;;2.38;1.45;;;;;;;19.51;35.09;101723.56;5008687;28;20037;-41
2022/03/13 08:24:54;;;;;;;2.53;1.38;;;;;;;19.50;35.09;101719.25;5008655;28;20037;-41
2022/03/13 08:27:20;;;;;;;2.50;1.65;;;;;;;19.50;35.24;101721.91;5008945;28;20060;-41
2022/03/13 08:29:46;;;;;;;2.40;1.30;;;;;;;19.50;35.24;101716.59;5022569;28;20033;-41
2022/03/13 08:32:11;;;;;;;2.55;1.25;;;;;;;19.49;35.19;101717.59;5008252;28;20421;-42
2022/03/13 08:34:38;;;;;;;3.90;1.73;;;;;;;19.49;35.09;101720.25;4996959;28;20034;-41
2022/03/13 08:37:04;;;;;;;1.80;1.15;;;;;;;19.50;35.19;101721.91;5023512;28;20461;-41
2022/03/13 08:39:30;;;;;;;1.40;0.88;;;;;;;19.49;35.24;101720.25;5006532;28;20033;-41
2022/03/13 08:41:55;;;;;;;2.65;1.27;;;;;;;19.49;35.18;101724.72;5008315;28;20068;-41
2022/03/13 08:44:21;;;;;;;2.60;1.23;;;;;;;19.48;35.13;101723.88;5008363;28;20033;-41
2022/03/13 08:46:47;;;;;;;3.63;1.30;;;;;;;19.48;35.33;101729.19;5007151;28;20400;-46
2022/03/13 08:49:13;;;;;;;4.05;1.23;;;;;;;19.49;35.54;101728.19;5004925;28;20422;-40
2022/03/13 08:51:39;;;;;;;2.92;1.42;;;;;;;19.51;35.91;101731.50;5008587;28;20508;-40
2022/03/13 08:54:04;;;;;;;7.22;1.52;;;;;;;19.52;36.29;101724.41;5007411;28;20080;-41
2022/03/13 08:56:30;;;;;;;5.93;2.28;;;;;;;19.52;36.46;101725.22;5007707;28;20061;-46
2022/03/13 08:58:55;;;;;;;7.45;2.10;;;;;;;19.50;36.69;101727.19;5008002;28;20042;-42
2022/03/13 09:01:24;;;;;;;4.78;1.80;;;;;;;19.50;37.18;101729.81;5007738;28;20029;-49
2022/03/13 09:03:51;;;;;;;5.82;2.03;;;;;;;19.51;37.37;101731.50;5007965;28;20040;-42
2022/03/13 09:06:17;;;;;;;3.97;2.08;;;;;;;19.48;37.56;101728.34;5008501;28;20029;-42
2022/03/13 09:08:42;;;;;;;6.65;1.80;;;;;;;19.45;37.84;101732.16;5008988;28;20032;-41
2022/03/13 09:11:09;;;;;;;5.20;1.40;;;;;;;19.41;37.94;101727.38;5008391;28;20025;-47
2022/03/13 09:13:36;;;;;;;4.82;1.38;;;;;;;19.40;37.79;101731.84;5007345;28;20529;-44
2022/03/13 09:16:02;;;;;;;3.78;1.40;;;;;;;19.42;37.88;101734.31;5007782;28;20516;-41
2022/03/13 09:18:27;;;;;;;4.28;1.20;;;;;;;19.43;37.89;101733.31;5008699;28;20029;-40
2022/03/13 09:20:53;;;;;;;19.90;1.67;;;;;;;19.43;38.17;101728.03;5008984;28;20128;-40
2022/03/13 09:23:18;;;;;;;5.63;1.35;;;;;;;19.43;38.47;101730.69;5004084;28;20036;-42
2022/03/13 09:25:44;;;;;;;3.88;1.27;;;;;;;19.41;38.77;101730.84;5007030;28;20096;-46
2022/03/13 09:28:10;;;;;;;3.25;1.05;;;;;;;19.40;38.50;101731.84;5004526;28;20022;-46
2022/03/13 09:30:35;;;;;;;6.95;1.60;;;;;;;19.38;38.50;101731.19;5006828;28;20595;-40
2022/03/13 09:33:01;;;;;;;8.32;1.42;;;;;;;19.36;38.35;101724.47;5002787;28;20096;-49
2022/03/13 09:35:27;;;;;;;7.53;1.90;;;;;;;19.35;37.63;101717.53;5002483;28;20105;-42
2022/03/13 09:37:53;;;;;;;3.05;1.60;;;;;;;19.31;37.28;101719.69;5007612;28;20375;-40
2022/03/13 09:40:19;;;;;;;4.18;1.40;;;;;;;19.31;37.35;101717.06;5019911;28;20460;-41
2022/03/13 09:42:46;;;;;;;4.80;1.77;;;;;;;19.29;37.47;101724.31;5007555;28;20022;-39
2022/03/13 09:45:13;;;;;;;6.70;1.55;;;;;;;19.29;37.42;101724.31;5005219;28;20034;-44
2022/03/13 09:47:39;;;;;;;6.82;1.38;;;;;;;19.25;37.44;101717.72;5007604;28;20037;-40
2022/03/13 09:50:06;;;;;;;4.18;1.05;;;;;;;19.21;37.26;101711.97;5022838;28;20041;-40
2022/03/13 09:52:33;;;;;;;3.70;1.38;;;;;;;19.17;37.39;101707.19;5007496;28;20022;-41
2022/03/13 09:55:00;;;;;;;6.85;1.83;;;;;;;19.13;37.62;101719.09;5022235;28;20493;-44
2022/03/13 09:57:25;;;;;;;5.90;1.42;;;;;;;19.11;37.91;101713.16;5007311;28;20083;-41
2022/03/13 09:59:51;;;;;;;3.53;1.30;;;;;;;19.11;37.84;101718.44;5005903;28;20034;-41
2022/03/13 10:02:17;;;;;;;6.18;1.65;;;;;;;19.09;38.32;101717.78;5003737;28;20069;-47
2022/03/13 10:04:43;;;;;;;5.53;1.52;;;;;;;19.09;38.36;101707.22;4995668;28;20054;-39
2022/03/13 10:07:10;;;;;;;4.75;1.30;;;;;;;19.08;38.47;101710.84;4998797;28;20180;-41
2022/03/13 10:09:38;;;;;;;7.45;1.50;;;;;;;19.09;38.58;101712.50;5007446;28;20038;-46
2022/03/13 10:12:16;;;;;;;8.63;1.50;;;;;;;19.06;39.04;101707.53;5002900;28;20042;-40
2022/03/13 10:15:05;;;;;;;6.47;1.42;;;;;;;19.05;39.06;101706.72;5001373;28;20042;-41
2022/03/13 10:17:33;;;;;;;2.35;0.98;;;;;;;19.07;38.76;101693.34;5004119;28;20619;-40
2022/03/13 10:20:23;;;;;;;12.93;1.13;;;;;;;19.06;38.19;101699.63;5005588;28;20061;-40
2022/03/13 10:23:00;;;;;;;5.55;1.15;;;;;;;19.05;37.74;101695.34;5005579;28;20112;-41
2022/03/13 10:25:35;;;;;;;2.45;0.90;;;;;;;19.04;37.74;101699.78;5004130;28;20400;-40
2022/03/13 10:28:23;;;;;;;2.90;0.80;;;;;;;19.02;37.92;101696.50;5003726;28;20034;-39
2022/03/13 10:30:55;;;;;;;5.80;1.80;;;;;;;19.00;37.75;101695.03;5015736;28;20100;-42
2022/03/13 10:33:20;;;;;;;5.10;0.75;;;;;;;19.00;37.92;101702.94;5002794;28;20520;-45
2022/03/13 10:35:47;;;;;;;3.20;1.05;;;;;;;18.98;37.80;101689.06;5006774;28;20064;-48
2022/03/13 10:38:23;;;;;;;3.33;0.82;;;;;;;18.96;37.78;101699.00;5005811;28;20069;-47
2022/03/13 10:40:56;;;;;;;;;;;;;;;18.88;37.89;101695.41;5007115;28;20036;-44
2022/03/13 10:43:26;;;;;;;3.75;0.80;;;;;;;18.91;37.96;101699.50;5006846;28;20475;-42
2022/03/13 10:45:53;;;;;;;4.38;0.90;;;;;;;18.93;37.71;101699.31;5006142;28;20358;-44
2022/03/13 10:48:29;;;;;;;2.83;1.08;;;;;;;18.94;37.57;101693.88;5019983;28;20037;-47
2022/03/13 10:50:57;;;;;;;2.72;0.60;;;;;;;18.94;37.54;101693.88;4987183;28;20513;-42
2022/03/13 10:53:23;;;;;;;1.65;0.95;;;;;;;18.96;37.50;101701.63;4991815;28;20034;-42
2022/03/13 10:56:09;;;;;;;5.32;1.42;;;;;;;18.94;37.33;101698.34;5005282;28;20038;-45
2022/03/13 10:58:38;;;;;;;3.85;0.93;;;;;;;18.93;37.43;101702.78;5006254;28;20053;-42
2022/03/13 11:01:17;;;;;;;1.60;0.82;;;;;;;18.92;37.36;101697.69;5021648;28;20140;-43
2022/03/13 11:03:52;;;;;;;1.98;0.73;;;;;;;18.89;37.47;101691.78;5007020;28;20125;-40
2022/03/13 11:06:19;;;;;;;2.05;0.50;;;;;;;18.90;37.38;101692.59;5006681;28;20037;-41
2022/03/13 11:08:45;;;;;;;2.42;0.73;;;;;;;18.91;37.28;101696.84;5005922;28;20128;-42
2022/03/13 11:11:15;;;;;;;3.47;0.70;;;;;;;18.90;37.40;101698.66;5006836;28;20450;-43
2022/03/13 11:13:42;;;;;;;2.95;0.90;;;;;;;18.89;37.34;101694.41;5007131;28;20456;-43
2022/03/13 11:16:10;;;;;;;2.65;0.60;;;;;;;18.89;37.38;101697.06;5006774;28;20030;-40
2022/03/13 11:18:38;;;;;;;3.28;0.95;;;;;;;18.89;37.33;101701.50;5005823;28;20113;-43
2022/03/13 11:21:06;;;;;;;2.88;0.70;;;;;;;18.88;37.11;101690.13;5004201;28;20575;-42
2022/03/13 11:23:33;;;;;;;1.98;0.50;;;;;;;18.87;37.28;101682.38;5021057;28;20032;-43
2022/03/13 11:25:59;;;;;;;2.40;0.70;;;;;;;18.86;37.29;101693.91;5005875;28;20125;-40
2022/03/13 11:28:28;;;;;;;3.00;0.82;;;;;;;18.86;37.12;101694.75;5009439;28;20030;-43